Karmel — 9HA2896 — position and weather

sailwx.info

Track history (hours):
 
Tides and Currents Weather Stations Pressure Air Temp Water Temp Dewpoint Dewpoint Depression Visibility Wind Speed Wind Dir Waves Ship Positions

Karmel

Last reported at 2015-Sep-04 22:24 UTC. Time now 2015-Sep-05 10:18 UTC.
Position N 59°32' E 023°47'.

Length 90 m; draft 3.5 m.

Type: Ship. MMSI: 256632000.

Date/timePositionNaut miles runAvg speedWind from/ knotsBaromVisibWave heightAir tempDewpointWater temp
2015-Sep-04 22:24N 59°32' E 023°47'22810.0
2015-Sep-03 23:33N 57°35' E 017°32'1010.1
2015-Sep-03 22:33N 57°29' E 017°16'1010.0
2015-Sep-03 21:33N 57°23' E 017°02'1010.1
2015-Sep-03 20:33N 57°14' E 016°52'1010.1
2015-Sep-03 19:33N 57°05' E 016°44'1010.0
2015-Sep-03 18:33N 56°56' E 016°36'82 2.1
2015-Sep-02 04:13N 55°45' E 015°21'710.8
2015-Sep-02 03:33N 55°41' E 015°11'1110.7
2015-Sep-02 02:33N 55°36' E 014°55'1010.1
2015-Sep-02 01:33N 55°29' E 014°41'10 9.8
2015-Sep-02 00:33N 55°20' E 014°34'1010.4
2015-Sep-01 23:33N 55°12' E 014°23'1010.2
2015-Sep-01 22:33N 55°04' E 014°12'1010.4
2015-Sep-01 21:33N 54°59' E 013°56'1110.6
2015-Sep-01 20:32N 54°55' E 013°39'4610.8
2015-Sep-01 16:15N 54°37' E 012°25'910.4
2015-Sep-01 15:26N 54°30' E 012°16'910.2
2015-Sep-01 14:33N 54°23' E 012°08'10 9.9
2015-Sep-01 13:33N 54°13' E 012°05'5 4.7
2015-Sep-01 12:27N 54°08' E 012°05'0 0.0
2015-Sep-01 10:12N 54°08' E 012°05'0 0.0
2015-Sep-01 09:18N 54°08' E 012°05'0 0.0
2015-Sep-01 07:09N 54°08' E 012°05'0 0.0
2015-Sep-01 04:21N 54°08' E 012°05'0 0.0
2015-Sep-01 03:21N 54°08' E 012°05'0 0.0
2015-Sep-01 00:21N 54°08' E 012°05'0 0.0
2015-Aug-31 23:24N 54°08' E 012°05'0 0.0
2015-Aug-31 22:33N 54°08' E 012°05'0 0.0
2015-Aug-31 17:33N 54°08' E 012°05'0 0.0
2015-Aug-31 15:15N 54°08' E 012°05'0 0.0
2015-Aug-31 13:24N 54°08' E 012°05'0 0.0
2015-Aug-31 12:30N 54°08' E 012°05'0 0.0
2015-Aug-31 11:33N 54°08' E 012°05'0 0.0
2015-Aug-31 09:21N 54°08' E 012°05'0 0.0
2015-Aug-31 01:28N 54°08' E 012°05'0 0.0
2015-Aug-31 00:16N 54°08' E 012°05'0 0.0
2015-Aug-30 23:31N 54°08' E 012°05'0 0.0
2015-Aug-30 20:07N 54°08' E 012°05'0 0.0
2015-Aug-30 12:19N 54°08' E 012°05'0 0.0
2015-Aug-29 23:25N 54°08' E 012°05'0 0.0
2015-Aug-29 18:19N 54°08' E 012°05'0 0.0
2015-Aug-29 17:28N 54°08' E 012°05'0 0.0
2015-Aug-29 13:31N 54°08' E 012°05'0 0.0
2015-Aug-29 10:25N 54°08' E 012°05'0 0.2
2015-Aug-29 09:34N 54°07' E 012°05'4 4.2
2015-Aug-29 08:33N 54°12' E 012°05'9 8.6
2015-Aug-29 07:33N 54°20' E 012°05'73 9.1
2015-Aug-28 23:31N 55°01' E 013°51'9 9.5
2015-Aug-28 22:34N 55°05' E 014°04'10 9.7
2015-Aug-28 21:34N 55°13' E 014°15'10 9.7
2015-Aug-28 20:33N 55°20' E 014°26'10 9.6
2015-Aug-28 19:34N 55°29' E 014°31'1010.1
2015-Aug-28 18:33N 55°40' E 014°34'10 9.9
2015-Aug-28 17:34N 55°49' E 014°36'13 0.3
2015-Aug-27 05:20N 56°02' E 014°35'1 0.9
2015-Aug-27 04:34N 56°01' E 014°35'7 7.4
2015-Aug-27 03:34N 55°54' E 014°37'7 7.3
2015-Aug-27 02:33N 55°47' E 014°38'7 7.2
2015-Aug-27 01:33N 55°39' E 014°38'7 7.3
2015-Aug-27 00:34N 55°32' E 014°38'8 8.2
2015-Aug-26 23:34N 55°24' E 014°38'8 8.0
2015-Aug-26 22:34N 55°18' E 014°29'8 8.3
2015-Aug-26 21:33N 55°11' E 014°19'9 8.5
2015-Aug-26 20:34N 55°10' E 014°04'9 8.5
2015-Aug-26 19:34N 55°11' E 013°50'9 8.7
2015-Aug-26 18:33N 55°12' E 013°34'8 8.4
2015-Aug-26 17:33N 55°13' E 013°20'9 9.2
2015-Aug-26 16:33N 55°14' E 013°04'1010.1
2015-Aug-26 15:33N 55°16' E 012°47'8 8.1
2015-Aug-26 14:34N 55°23' E 012°39'10 9.8
2015-Aug-26 13:34N 55°33' E 012°42'1110.5
2015-Aug-26 12:34N 55°43' E 012°41'10 9.7
2015-Aug-26 11:33N 55°53' E 012°40'9 9.4
2015-Aug-26 10:34N 56°02' E 012°38'1010.2
2015-Aug-26 09:33N 56°09' E 012°25'10 9.9
2015-Aug-26 08:33N 56°15' E 012°10'  
Track history (hours):
 
Tides and Currents Weather Stations Pressure Air Temp Water Temp Dewpoint Dewpoint Depression Visibility Wind Speed Wind Dir Waves Ship Positions

Karmel

Last reported at 2015-Sep-04 22:24 UTC. Time now 2015-Sep-05 10:18 UTC.
Position N 59°32' E 023°47'.

Length 90 m; draft 3.5 m.

Type: Ship. MMSI: 256632000.

Date/timePositionNaut miles runAvg speedWind from/ knotsBaromVisibWave heightAir tempDewpointWater temp
2015-Sep-04 22:24N 59°32' E 023°47'22810.0
2015-Sep-03 23:33N 57°35' E 017°32'1010.1
2015-Sep-03 22:33N 57°29' E 017°16'1010.0
2015-Sep-03 21:33N 57°23' E 017°02'1010.1
2015-Sep-03 20:33N 57°14' E 016°52'1010.1
2015-Sep-03 19:33N 57°05' E 016°44'1010.0
2015-Sep-03 18:33N 56°56' E 016°36'82 2.1
2015-Sep-02 04:13N 55°45' E 015°21'710.8
2015-Sep-02 03:33N 55°41' E 015°11'1110.7
2015-Sep-02 02:33N 55°36' E 014°55'1010.1
2015-Sep-02 01:33N 55°29' E 014°41'10 9.8
2015-Sep-02 00:33N 55°20' E 014°34'1010.4
2015-Sep-01 23:33N 55°12' E 014°23'1010.2
2015-Sep-01 22:33N 55°04' E 014°12'1010.4
2015-Sep-01 21:33N 54°59' E 013°56'1110.6
2015-Sep-01 20:32N 54°55' E 013°39'4610.8
2015-Sep-01 16:15N 54°37' E 012°25'910.4
2015-Sep-01 15:26N 54°30' E 012°16'910.2
2015-Sep-01 14:33N 54°23' E 012°08'10 9.9
2015-Sep-01 13:33N 54°13' E 012°05'5 4.7
2015-Sep-01 12:27N 54°08' E 012°05'0 0.0
2015-Sep-01 10:12N 54°08' E 012°05'0 0.0
2015-Sep-01 09:18N 54°08' E 012°05'0 0.0
2015-Sep-01 07:09N 54°08' E 012°05'0 0.0
2015-Sep-01 04:21N 54°08' E 012°05'0 0.0
2015-Sep-01 03:21N 54°08' E 012°05'0 0.0
2015-Sep-01 00:21N 54°08' E 012°05'0 0.0
2015-Aug-31 23:24N 54°08' E 012°05'0 0.0
2015-Aug-31 22:33N 54°08' E 012°05'0 0.0
2015-Aug-31 17:33N 54°08' E 012°05'0 0.0
2015-Aug-31 15:15N 54°08' E 012°05'0 0.0
2015-Aug-31 13:24N 54°08' E 012°05'0 0.0
2015-Aug-31 12:30N 54°08' E 012°05'0 0.0
2015-Aug-31 11:33N 54°08' E 012°05'0 0.0
2015-Aug-31 09:21N 54°08' E 012°05'0 0.0
2015-Aug-31 01:28N 54°08' E 012°05'0 0.0
2015-Aug-31 00:16N 54°08' E 012°05'0 0.0
2015-Aug-30 23:31N 54°08' E 012°05'0 0.0
2015-Aug-30 20:07N 54°08' E 012°05'0 0.0
2015-Aug-30 12:19N 54°08' E 012°05'0 0.0
2015-Aug-29 23:25N 54°08' E 012°05'0 0.0
2015-Aug-29 18:19N 54°08' E 012°05'0 0.0
2015-Aug-29 17:28N 54°08' E 012°05'0 0.0
2015-Aug-29 13:31N 54°08' E 012°05'0 0.0
2015-Aug-29 10:25N 54°08' E 012°05'0 0.2
2015-Aug-29 09:34N 54°07' E 012°05'4 4.2
2015-Aug-29 08:33N 54°12' E 012°05'9 8.6
2015-Aug-29 07:33N 54°20' E 012°05'73 9.1
2015-Aug-28 23:31N 55°01' E 013°51'9 9.5
2015-Aug-28 22:34N 55°05' E 014°04'10 9.7
2015-Aug-28 21:34N 55°13' E 014°15'10 9.7
2015-Aug-28 20:33N 55°20' E 014°26'10 9.6
2015-Aug-28 19:34N 55°29' E 014°31'1010.1
2015-Aug-28 18:33N 55°40' E 014°34'10 9.9
2015-Aug-28 17:34N 55°49' E 014°36'13 0.3
2015-Aug-27 05:20N 56°02' E 014°35'1 0.9
2015-Aug-27 04:34N 56°01' E 014°35'7 7.4
2015-Aug-27 03:34N 55°54' E 014°37'7 7.3
2015-Aug-27 02:33N 55°47' E 014°38'7 7.2
2015-Aug-27 01:33N 55°39' E 014°38'7 7.3
2015-Aug-27 00:34N 55°32' E 014°38'8 8.2
2015-Aug-26 23:34N 55°24' E 014°38'8 8.0
2015-Aug-26 22:34N 55°18' E 014°29'8 8.3
2015-Aug-26 21:33N 55°11' E 014°19'9 8.5
2015-Aug-26 20:34N 55°10' E 014°04'9 8.5
2015-Aug-26 19:34N 55°11' E 013°50'9 8.7
2015-Aug-26 18:33N 55°12' E 013°34'8 8.4
2015-Aug-26 17:33N 55°13' E 013°20'9 9.2
2015-Aug-26 16:33N 55°14' E 013°04'1010.1
2015-Aug-26 15:33N 55°16' E 012°47'8 8.1
2015-Aug-26 14:34N 55°23' E 012°39'10 9.8
2015-Aug-26 13:34N 55°33' E 012°42'1110.5
2015-Aug-26 12:34N 55°43' E 012°41'10 9.7
2015-Aug-26 11:33N 55°53' E 012°40'9 9.4
2015-Aug-26 10:34N 56°02' E 012°38'1010.2
2015-Aug-26 09:33N 56°09' E 012°25'10 9.9
2015-Aug-26 08:33N 56°15' E 012°10'  

Dump ship's entire track history